Flight Track Log - Related Links

Times and Time Zones

All times are in EDT time to prevent confusion due to time zone crossing. See the DAL5547 flight status page for this flight to view local times or setup timezone preferences in your user account.


Time Position Orientation Groundspeed Altitude Reporting Facility
EDT Latitude Longitude Course Direction KTS MPH feet Rate Location/Type
Wed 02:31:13 PM 33.6500 -84.5000 259° West 200 230 2,800  Level Atlanta TRACON
Wed 02:32:13 PM 33.6667 -84.5833 284° West 267 307 5,100 2,450 Climbing Atlanta TRACON
Wed 02:33:13 PM 33.6833 -84.6667 284° West 277 319 7,700 2,171 Climbing Atlanta TRACON
Wed 02:34:45 PM 33.7061 -84.8178 280° West 304 350 10,600 1,658 Climbing Atlanta Center
Wed 02:35:45 PM 33.7242 -84.9256 281° West 328 377 11,900 1,500 Climbing Atlanta Center
Wed 02:36:00 PM 33.8572 -84.9316 259° West  Level Estimated
Wed 02:36:45 PM 33.7400 -85.0381 280° West 343 395 13,600  Level Atlanta Center
Wed 02:37:45 PM 33.7578 -85.1556 280° West 354 407 15,300 1,450 Climbing Atlanta Center
Wed 02:38:45 PM 33.7758 -85.2583 282° West 354 407 16,500 1,300 Climbing Atlanta Center
Wed 02:39:45 PM 33.7933 -85.3786 280° West 354 407 17,900 1,100 Climbing Atlanta Center
Wed 02:40:45 PM 33.8128 -85.4964 281° West 359 413 18,700 800 Climbing Atlanta Center
Wed 02:41:45 PM 33.8364 -85.6169 283° West 364 419 19,500 800 Climbing Atlanta Center
Wed 02:42:45 PM 33.8703 -85.7375 289° West 376 433 20,300 850 Climbing Atlanta Center
Wed 02:43:45 PM 33.9061 -85.8633 289° West 376 433 21,200 850 Climbing Atlanta Center
Wed 02:44:45 PM 33.9458 -85.9819 292° West 376 433 22,000 -450 Climbing Atlanta Center
Wed 02:45:45 PM 33.9842 -86.0756 296° West 382 440 20,300 -2,332 Descending Atlanta Center
Wed 02:47:58 PM 34.2214 -86.2478 329° Northwest 381 438 14,500 -2,549 Descending Memphis Center
Wed 02:48:58 PM 34.3153 -86.3086 332° Northwest 387 445 12,100 -1,850 Descending Memphis Center
Wed 02:49:58 PM 34.4050 -86.3722 330° Northwest 387 445 10,800 -1,000 Descending Memphis Center
Wed 02:50:58 PM 34.4944 -86.4311 332° Northwest 376 433 10,100 -400 Descending Memphis Center
Wed 02:51:58 PM 34.5797 -86.4878 331° Northwest 367 422 10,000 -950 Descending Memphis Center
Wed 02:52:58 PM 34.6500 -86.5375 330° Northwest 329 379 8,200 -2,250 Descending Memphis Center
Wed 02:53:58 PM 34.7183 -86.5800 333° Northwest 293 337 5,500 -2,050 Descending Memphis Center
Wed 02:54:58 PM 34.7822 -86.6275 329° Northwest 275 316 4,100 -700 Descending Memphis Center
Wed 02:55:58 PM 34.7844 -86.6983 272° West 203 234 4,100 -450 Level Memphis Center
Wed 02:56:58 PM 34.7672 -86.7572 250° West 179 206 3,200 -950 Descending Memphis Center
Wed 02:57:58 PM 34.7264 -86.7817 206° Southwest 160 184 2,200 -900 Descending Memphis Center
Wed 02:58:58 PM 34.6847 -86.7833 182° South 141 162 1,400 -700 Descending Memphis Center
Wed 02:59:58 PM 34.6533 -86.7847 182° South 141 162 800 -600 Descending Memphis Center

Login

Don't have an account? Register now (free) for customized features, flight alerts, and more!